createdAt,value
2022-09-27T00:00:46.994Z,9.80
2022-09-27T00:03:14.954Z,9.80
2022-09-27T00:05:42.875Z,9.80
2022-09-27T00:08:10.801Z,9.70
2022-09-27T00:10:38.682Z,9.70
2022-09-27T00:13:07.956Z,9.70
2022-09-27T00:15:35.946Z,9.70
2022-09-27T00:18:03.889Z,9.70
2022-09-27T00:20:31.993Z,9.70
2022-09-27T00:22:59.858Z,9.70
2022-09-27T00:25:27.748Z,9.70
2022-09-27T00:27:55.593Z,9.70
2022-09-27T00:30:25.701Z,9.70
2022-09-27T00:32:53.755Z,9.70
2022-09-27T00:35:21.716Z,9.70
2022-09-27T00:37:49.806Z,9.70
2022-09-27T00:40:19.745Z,9.70
2022-09-27T00:42:48.003Z,9.70
2022-09-27T00:45:17.941Z,9.70
2022-09-27T00:47:54.320Z,9.70
2022-09-27T00:50:30.972Z,9.60
2022-09-27T00:53:10.789Z,9.60
2022-09-27T00:55:43.852Z,9.70
2022-09-27T00:58:13.418Z,9.70
2022-09-27T01:00:46.054Z,9.70
2022-09-27T01:03:24.799Z,9.70
2022-09-27T01:05:53.341Z,9.70
2022-09-27T01:08:22.269Z,9.60
2022-09-27T01:11:02.803Z,9.70
2022-09-27T01:13:39.694Z,9.60
2022-09-27T01:16:14.826Z,9.60
2022-09-27T01:18:53.432Z,9.60
2022-09-27T01:21:34.005Z,9.60
2022-09-27T01:24:20.873Z,9.60
2022-09-27T01:27:11.739Z,9.60
2022-09-27T01:29:55.843Z,9.60
2022-09-27T01:32:33.200Z,9.60
2022-09-27T01:35:07.148Z,9.60
2022-09-27T01:37:40.986Z,9.60
2022-09-27T01:40:18.465Z,9.60
2022-09-27T01:42:51.089Z,9.60
2022-09-27T01:45:24.474Z,9.70
2022-09-27T01:47:57.466Z,9.60
2022-09-27T01:50:32.419Z,9.70
2022-09-27T01:53:04.487Z,9.60
2022-09-27T01:55:36.215Z,9.60
2022-09-27T01:58:10.860Z,9.60
2022-09-27T02:00:40.852Z,9.60
2022-09-27T02:03:14.684Z,9.60
2022-09-27T02:05:47.719Z,9.60
2022-09-27T02:08:19.285Z,9.60
2022-09-27T02:10:51.234Z,9.60
2022-09-27T02:13:23.348Z,9.60
2022-09-27T02:15:58.642Z,9.60
2022-09-27T02:18:34.161Z,9.70
2022-09-27T02:21:04.850Z,9.60
2022-09-27T02:23:40.012Z,9.60
2022-09-27T02:26:16.876Z,9.60
2022-09-27T02:28:49.702Z,9.60
2022-09-27T02:31:17.707Z,9.60
2022-09-27T02:33:50.952Z,9.60
2022-09-27T02:36:19.060Z,9.60
2022-09-27T02:38:47.228Z,9.60
2022-09-27T02:41:16.316Z,9.50
2022-09-27T02:43:45.790Z,9.50
2022-09-27T02:46:31.780Z,9.50
2022-09-27T02:49:11.952Z,9.50
2022-09-27T02:51:50.305Z,9.50
2022-09-27T02:54:26.415Z,9.50
2022-09-27T02:57:03.961Z,9.50
2022-09-27T02:59:45.237Z,9.50
2022-09-27T03:02:17.936Z,9.50
2022-09-27T03:04:53.320Z,9.50
2022-09-27T03:07:21.843Z,9.50
2022-09-27T03:09:51.704Z,9.50
2022-09-27T03:12:22.676Z,9.50
2022-09-27T03:14:51.363Z,9.50
2022-09-27T03:17:19.382Z,9.50
2022-09-27T03:19:48.577Z,9.50
2022-09-27T03:22:16.537Z,9.40
2022-09-27T03:24:44.506Z,9.40
2022-09-27T03:27:13.272Z,9.40
2022-09-27T03:29:41.195Z,9.40
2022-09-27T03:32:09.156Z,9.40
2022-09-27T03:34:37.076Z,9.40
2022-09-27T03:37:06.346Z,9.40
2022-09-27T03:39:34.260Z,9.40
2022-09-27T03:42:02.155Z,9.40
2022-09-27T03:44:30.130Z,9.40
2022-09-27T03:46:58.661Z,9.40
2022-09-27T03:49:26.571Z,9.40
2022-09-27T03:51:54.763Z,9.40
2022-09-27T03:54:25.095Z,9.30
2022-09-27T03:56:53.094Z,9.30
2022-09-27T03:59:21.047Z,9.30
2022-09-27T04:01:49.089Z,9.30
2022-09-27T04:04:17.135Z,9.40
2022-09-27T04:06:44.999Z,9.30
2022-09-27T04:09:12.868Z,9.30
2022-09-27T04:11:42.160Z,9.30
2022-09-27T04:14:13.076Z,9.30
2022-09-27T04:16:41.551Z,9.30
2022-09-27T04:19:09.749Z,9.40
2022-09-27T04:21:37.622Z,9.40
2022-09-27T04:24:06.659Z,9.40
2022-09-27T04:26:34.661Z,9.40
2022-09-27T04:29:04.090Z,9.30
2022-09-27T04:31:32.004Z,9.30
2022-09-27T04:34:00.222Z,9.30
2022-09-27T04:36:27.941Z,9.30
2022-09-27T04:38:56.906Z,9.30
2022-09-27T04:41:25.960Z,9.30
2022-09-27T04:43:58.974Z,9.30
2022-09-27T04:46:31.646Z,9.30
2022-09-27T04:49:00.299Z,9.30
2022-09-27T04:51:28.810Z,9.30
2022-09-27T04:53:58.090Z,9.30
2022-09-27T04:56:26.243Z,9.30
2022-09-27T04:58:54.570Z,9.40
2022-09-27T05:01:22.997Z,9.30
2022-09-27T05:03:52.322Z,9.30
2022-09-27T05:06:20.758Z,9.20
2022-09-27T05:08:48.686Z,9.20
2022-09-27T05:11:16.559Z,9.20
2022-09-27T05:13:44.508Z,9.20
2022-09-27T05:16:12.448Z,9.30
2022-09-27T05:18:40.422Z,9.30
2022-09-27T05:21:09.921Z,9.20
2022-09-27T05:23:37.912Z,9.20
2022-09-27T05:26:06.491Z,9.20
2022-09-27T05:28:35.185Z,9.20
2022-09-27T05:31:03.311Z,9.20
2022-09-27T05:33:31.331Z,9.20
2022-09-27T05:35:59.443Z,9.20
2022-09-27T05:38:30.206Z,9.10
2022-09-27T05:40:58.164Z,9.10
2022-09-27T05:43:26.231Z,9.10
2022-09-27T05:45:54.474Z,9.10
2022-09-27T05:48:22.482Z,9.10
2022-09-27T05:50:50.441Z,9.10
2022-09-27T05:53:18.684Z,9.10
2022-09-27T05:55:48.708Z,9.10
2022-09-27T05:58:16.872Z,9.10
2022-09-27T06:00:45.189Z,9.10
2022-09-27T06:03:14.606Z,9.10
2022-09-27T06:05:42.700Z,9.10
2022-09-27T06:08:12.676Z,9.10
2022-09-27T06:10:42.049Z,9.10
2022-09-27T06:13:14.211Z,9.10
2022-09-27T06:15:43.832Z,9.00
2022-09-27T06:18:13.532Z,9.00
2022-09-27T06:20:43.010Z,9.00
2022-09-27T06:23:12.930Z,9.00
2022-09-27T06:25:42.251Z,9.00
2022-09-27T06:28:11.898Z,9.00
2022-09-27T06:30:40.964Z,9.00
2022-09-27T06:33:10.797Z,9.00
2022-09-27T06:35:38.736Z,9.00
2022-09-27T06:38:09.103Z,9.00
2022-09-27T06:40:37.416Z,9.10
2022-09-27T06:43:06.129Z,9.10
2022-09-27T06:45:36.307Z,9.10
2022-09-27T06:48:04.864Z,9.20
2022-09-27T06:50:34.088Z,9.20
2022-09-27T06:53:02.529Z,9.20
2022-09-27T06:55:30.543Z,9.30
2022-09-27T06:58:16.608Z,9.30
2022-09-27T07:00:47.823Z,9.20
2022-09-27T07:03:17.116Z,9.30
2022-09-27T07:05:55.837Z,9.20
2022-09-27T07:08:25.119Z,9.20
2022-09-27T07:10:53.148Z,9.20
2022-09-27T07:13:21.077Z,9.10
2022-09-27T07:15:50.345Z,9.10
2022-09-27T07:18:18.247Z,9.10
2022-09-27T07:20:46.100Z,9.10
2022-09-27T07:23:15.195Z,9.00
2022-09-27T07:25:43.247Z,9.00
2022-09-27T07:28:21.550Z,9.00
2022-09-27T07:30:56.467Z,9.00
2022-09-27T07:33:25.146Z,9.00
2022-09-27T07:35:53.185Z,9.00
2022-09-27T07:38:21.444Z,9.00
2022-09-27T07:40:49.498Z,9.00
2022-09-27T07:43:17.756Z,9.00
2022-09-27T07:45:45.717Z,9.00
2022-09-27T07:48:17.073Z,9.00
2022-09-27T07:50:45.098Z,9.00
2022-09-27T07:53:13.887Z,9.10
2022-09-27T07:55:42.797Z,9.10
2022-09-27T07:58:13.695Z,9.20
2022-09-27T08:00:42.004Z,9.30
2022-09-27T08:03:14.272Z,9.40
2022-09-27T08:05:44.317Z,9.50
2022-09-27T08:08:12.379Z,9.60
2022-09-27T08:10:47.355Z,9.70
2022-09-27T08:13:17.910Z,9.70
2022-09-27T08:15:45.905Z,9.70
2022-09-27T08:18:13.812Z,9.70
2022-09-27T08:20:43.098Z,9.70
2022-09-27T08:23:11.462Z,9.60
2022-09-27T08:25:40.334Z,9.60
2022-09-27T08:28:08.339Z,9.60
2022-09-27T08:30:38.063Z,9.70
2022-09-27T08:33:05.961Z,9.70
2022-09-27T08:35:34.470Z,9.60
2022-09-27T08:38:05.962Z,9.60
2022-09-27T08:40:54.669Z,9.60
2022-09-27T08:43:32.157Z,9.60
2022-09-27T08:46:21.836Z,9.60
2022-09-27T08:48:52.669Z,9.60
2022-09-27T08:51:31.178Z,9.80
2022-09-27T08:54:06.812Z,9.80
2022-09-27T08:56:35.416Z,9.90
2022-09-27T08:59:11.770Z,9.80
2022-09-27T09:01:41.301Z,9.80
2022-09-27T09:04:12.055Z,9.80
2022-09-27T09:06:47.679Z,9.70
2022-09-27T09:09:27.988Z,9.70
2022-09-27T09:12:25.588Z,9.70
2022-09-27T09:15:24.120Z,10.00
2022-09-27T09:18:16.931Z,10.70
2022-09-27T09:20:58.434Z,11.30
2022-09-27T09:23:57.815Z,11.60
2022-09-27T09:26:36.171Z,11.70
2022-09-27T09:29:24.244Z,11.60
2022-09-27T09:32:03.321Z,11.30
2022-09-27T09:34:37.861Z,11.10
2022-09-27T09:37:13.719Z,10.90
2022-09-27T09:39:45.786Z,10.90
2022-09-27T09:42:21.434Z,11.00
2022-09-27T09:44:55.601Z,11.10
2022-09-27T09:47:35.711Z,11.20
2022-09-27T09:50:14.722Z,11.30
2022-09-27T09:52:48.158Z,11.40
2022-09-27T09:55:20.627Z,11.30
2022-09-27T09:58:02.296Z,11.10
2022-09-27T10:00:30.299Z,11.00
2022-09-27T10:03:00.929Z,11.00
2022-09-27T10:05:29.732Z,11.10
2022-09-27T10:08:01.815Z,11.30
2022-09-27T10:10:29.864Z,11.50
2022-09-27T10:12:59.260Z,11.70
2022-09-27T10:15:30.779Z,11.70
2022-09-27T10:18:00.074Z,11.70
2022-09-27T10:20:34.182Z,11.70
2022-09-27T10:23:10.801Z,11.80
2022-09-27T10:25:48.800Z,11.70
2022-09-27T10:28:39.838Z,11.60
2022-09-27T10:31:09.581Z,11.50
2022-09-27T10:33:41.072Z,11.30
2022-09-27T10:36:25.431Z,11.10
2022-09-27T10:38:55.210Z,11.00
2022-09-27T10:41:26.543Z,10.80
2022-09-27T10:43:55.777Z,10.70
2022-09-27T10:46:28.248Z,10.60
2022-09-27T10:49:19.014Z,10.60
2022-09-27T10:51:50.370Z,11.00
2022-09-27T10:54:23.751Z,11.40
2022-09-27T10:57:00.514Z,11.90
2022-09-27T10:59:32.285Z,12.60
2022-09-27T11:02:00.343Z,13.20
2022-09-27T11:04:31.678Z,13.60
2022-09-27T11:07:14.344Z,13.70
2022-09-27T11:09:50.307Z,13.50
2022-09-27T11:12:20.769Z,12.90
2022-09-27T11:14:57.150Z,12.50
2022-09-27T11:17:35.876Z,12.10
2022-09-27T11:20:18.200Z,11.70
2022-09-27T11:23:29.226Z,11.40
2022-09-27T11:26:14.187Z,11.10
2022-09-27T11:28:53.896Z,10.80
2022-09-27T11:31:48.192Z,10.50
2022-09-27T11:34:37.349Z,10.10
2022-09-27T11:37:16.815Z,9.70
2022-09-27T11:40:00.544Z,9.60
2022-09-27T11:43:05.869Z,9.40
2022-09-27T11:46:13.436Z,9.40
2022-09-27T11:48:55.178Z,9.50
2022-09-27T11:51:33.284Z,9.50
2022-09-27T11:54:15.785Z,9.60
2022-09-27T11:56:51.801Z,9.70
2022-09-27T11:59:47.894Z,10.00
2022-09-27T12:02:31.234Z,10.20
2022-09-27T12:05:16.786Z,10.30
2022-09-27T12:07:54.974Z,10.20
2022-09-27T12:10:23.063Z,10.10
2022-09-27T12:12:54.243Z,10.10
2022-09-27T12:15:25.229Z,10.10
2022-09-27T12:17:57.036Z,10.00
2022-09-27T12:20:31.284Z,10.20
2022-09-27T12:23:04.127Z,10.40
2022-09-27T12:25:37.396Z,10.70
2022-09-27T12:28:09.822Z,10.90
2022-09-27T12:30:42.770Z,10.90
2022-09-27T12:33:17.626Z,10.90
2022-09-27T12:35:52.550Z,10.80
2022-09-27T12:38:26.015Z,10.70
2022-09-27T12:40:58.484Z,10.60
2022-09-27T12:43:28.677Z,10.60
2022-09-27T12:46:08.540Z,10.50
2022-09-27T12:48:44.502Z,10.50
2022-09-27T12:51:15.470Z,10.40
2022-09-27T12:53:59.260Z,10.50
2022-09-27T12:56:39.811Z,10.50
2022-09-27T12:59:35.255Z,10.50
2022-09-27T13:03:03.890Z,10.50
2022-09-27T13:06:14.338Z,10.50
2022-09-27T13:09:07.018Z,10.40
2022-09-27T13:11:45.402Z,10.40
2022-09-27T13:14:20.535Z,10.40
2022-09-27T13:16:51.382Z,10.40
2022-09-27T13:19:44.139Z,10.30
2022-09-27T13:22:37.477Z,10.20
2022-09-27T13:25:55.513Z,10.20
2022-09-27T13:28:36.116Z,10.00
2022-09-27T13:31:05.249Z,9.70
2022-09-27T13:33:50.111Z,9.40
2022-09-27T13:36:30.634Z,9.10
2022-09-27T13:39:19.881Z,8.90
2022-09-27T13:42:04.681Z,8.80
2022-09-27T13:44:40.635Z,8.80
2022-09-27T13:47:26.497Z,8.80
2022-09-27T13:49:59.025Z,8.80
2022-09-27T13:52:33.887Z,8.80
2022-09-27T13:55:03.483Z,8.90
2022-09-27T13:57:50.596Z,9.00
2022-09-27T14:00:21.605Z,9.10
2022-09-27T14:03:01.656Z,9.10
2022-09-27T14:05:35.852Z,9.20
2022-09-27T14:08:05.133Z,9.20
2022-09-27T14:10:34.014Z,9.30
2022-09-27T14:13:06.318Z,9.30
2022-09-27T14:15:35.195Z,9.40
2022-09-27T14:18:03.238Z,9.40
2022-09-27T14:20:37.343Z,9.50
2022-09-27T14:23:05.648Z,9.50
2022-09-27T14:25:33.661Z,9.50
2022-09-27T14:28:02.990Z,9.60
2022-09-27T14:30:31.459Z,9.50
2022-09-27T14:33:04.021Z,9.60
2022-09-27T14:35:50.636Z,9.60
2022-09-27T14:38:37.028Z,9.60
2022-09-27T14:41:08.402Z,9.60
2022-09-27T14:43:43.032Z,9.60
2022-09-27T14:46:26.548Z,9.60
2022-09-27T14:48:55.437Z,9.70
2022-09-27T14:51:28.938Z,9.80
2022-09-27T14:54:01.180Z,9.70
2022-09-27T14:56:32.241Z,9.80
2022-09-27T14:59:04.774Z,9.80
2022-09-27T15:01:33.130Z,9.80
2022-09-27T15:04:07.043Z,9.80
2022-09-27T15:06:37.776Z,9.80
2022-09-27T15:09:07.055Z,9.90
2022-09-27T15:11:35.518Z,9.80
2022-09-27T15:14:06.410Z,9.80
2022-09-27T15:16:35.151Z,9.80
2022-09-27T15:19:07.754Z,9.60
2022-09-27T15:21:38.269Z,9.60
2022-09-27T15:24:07.253Z,9.50
2022-09-27T15:26:40.336Z,9.40
2022-09-27T15:29:19.952Z,9.40
2022-09-27T15:31:59.519Z,9.30
2022-09-27T15:34:29.967Z,9.30
2022-09-27T15:37:00.748Z,9.30
2022-09-27T15:39:33.808Z,9.30
2022-09-27T15:42:07.469Z,9.20
2022-09-27T15:44:45.847Z,9.20
2022-09-27T15:47:51.048Z,9.20
2022-09-27T15:50:35.248Z,9.20
2022-09-27T15:53:05.548Z,9.20
2022-09-27T15:55:37.217Z,9.20
2022-09-27T15:58:08.151Z,9.20
2022-09-27T16:00:37.572Z,9.20
2022-09-27T16:03:05.645Z,9.20
2022-09-27T16:05:33.642Z,9.20
2022-09-27T16:08:01.979Z,9.20
2022-09-27T16:10:37.029Z,9.20
2022-09-27T16:13:05.071Z,9.10
2022-09-27T16:15:33.223Z,9.10
2022-09-27T16:18:02.470Z,9.10
2022-09-27T16:20:32.140Z,9.10
2022-09-27T16:23:00.277Z,9.10
2022-09-27T16:25:28.659Z,9.10
2022-09-27T16:27:59.170Z,9.10
2022-09-27T16:30:27.854Z,9.00
2022-09-27T16:32:55.773Z,9.00
2022-09-27T16:35:26.980Z,9.00
2022-09-27T16:37:54.975Z,9.00
2022-09-27T16:40:23.367Z,9.00
2022-09-27T16:42:51.463Z,9.00
2022-09-27T16:45:19.965Z,8.90
2022-09-27T16:47:48.536Z,8.90
2022-09-27T16:50:34.576Z,8.90
2022-09-27T16:53:05.234Z,8.90
2022-09-27T16:55:33.214Z,8.90
2022-09-27T16:58:03.818Z,8.90
2022-09-27T17:00:33.554Z,8.90
2022-09-27T17:03:01.615Z,8.90
2022-09-27T17:05:29.637Z,8.90
2022-09-27T17:07:57.757Z,8.90
2022-09-27T17:10:27.439Z,8.90
2022-09-27T17:12:57.148Z,8.90
2022-09-27T17:15:25.041Z,8.90
2022-09-27T17:17:53.269Z,9.00
2022-09-27T17:20:21.198Z,9.00
2022-09-27T17:22:49.108Z,9.00
2022-09-27T17:25:17.110Z,8.90
2022-09-27T17:27:46.426Z,8.90
2022-09-27T17:30:14.572Z,8.90
2022-09-27T17:32:42.462Z,8.80
2022-09-27T17:35:10.621Z,8.80
2022-09-27T17:37:38.470Z,8.80
2022-09-27T17:40:07.356Z,8.80
2022-09-27T17:42:35.429Z,8.70
2022-09-27T17:45:05.049Z,8.80
2022-09-27T17:47:50.603Z,8.80
2022-09-27T17:50:28.804Z,8.80
2022-09-27T17:52:58.895Z,8.80
2022-09-27T17:55:27.544Z,8.70
2022-09-27T17:57:55.494Z,8.70
2022-09-27T18:00:24.846Z,8.70
2022-09-27T18:02:53.050Z,8.80
2022-09-27T18:05:21.736Z,8.70
2022-09-27T18:07:50.177Z,8.60
2022-09-27T18:10:18.701Z,8.60
2022-09-27T18:12:46.587Z,8.60
2022-09-27T18:15:16.959Z,8.60
2022-09-27T18:17:48.653Z,8.70
2022-09-27T18:20:17.381Z,8.70
2022-09-27T18:22:45.717Z,8.70
2022-09-27T18:25:13.633Z,8.70
2022-09-27T18:27:43.274Z,8.70
2022-09-27T18:30:12.417Z,8.70
2022-09-27T18:32:40.286Z,8.70
2022-09-27T18:35:10.062Z,8.70
2022-09-27T18:37:37.969Z,8.70
2022-09-27T18:40:06.585Z,8.70
2022-09-27T18:42:34.799Z,8.70
2022-09-27T18:45:02.780Z,8.70
2022-09-27T18:47:30.968Z,8.70
2022-09-27T18:49:58.950Z,8.70
2022-09-27T18:52:28.222Z,8.70
2022-09-27T18:54:56.113Z,8.70
2022-09-27T18:57:24.514Z,8.70
2022-09-27T18:59:53.216Z,8.70
2022-09-27T19:02:21.153Z,8.70
2022-09-27T19:04:49.114Z,8.70
2022-09-27T19:07:16.969Z,8.60
2022-09-27T19:09:46.265Z,8.60
2022-09-27T19:12:14.167Z,8.60
2022-09-27T19:14:42.164Z,8.60
2022-09-27T19:17:10.100Z,8.60
2022-09-27T19:19:37.964Z,8.60
2022-09-27T19:22:05.877Z,8.60
2022-09-27T19:24:33.777Z,8.60
2022-09-27T19:27:03.002Z,8.60
2022-09-27T19:29:31.008Z,8.50
2022-09-27T19:31:58.927Z,8.50
2022-09-27T19:34:26.874Z,8.50
2022-09-27T19:36:55.375Z,8.50
2022-09-27T19:39:23.276Z,8.40
2022-09-27T19:41:51.305Z,8.40
2022-09-27T19:44:20.524Z,8.40
2022-09-27T19:46:48.448Z,8.40
2022-09-27T19:49:18.744Z,8.40
2022-09-27T19:51:46.623Z,8.40
2022-09-27T19:54:14.743Z,8.30
2022-09-27T19:56:42.633Z,8.30
2022-09-27T19:59:11.503Z,8.40
2022-09-27T20:01:41.995Z,8.20
2022-09-27T20:04:12.855Z,8.20
2022-09-27T20:06:41.084Z,8.20
2022-09-27T20:09:09.248Z,8.30
2022-09-27T20:11:37.204Z,8.30
2022-09-27T20:14:05.088Z,8.30
2022-09-27T20:16:35.292Z,8.30
2022-09-27T20:19:06.245Z,8.20
2022-09-27T20:21:34.346Z,8.20
2022-09-27T20:24:03.571Z,8.20
2022-09-27T20:26:34.527Z,8.20
2022-09-27T20:29:04.824Z,8.20
2022-09-27T20:31:36.809Z,8.20
2022-09-27T20:34:06.832Z,8.20
2022-09-27T20:36:37.434Z,8.20
2022-09-27T20:39:07.466Z,8.20
2022-09-27T20:41:36.856Z,8.20
2022-09-27T20:44:06.839Z,8.20
2022-09-27T20:46:36.200Z,8.20
2022-09-27T20:49:07.074Z,8.20
2022-09-27T20:51:36.641Z,8.20
2022-09-27T20:54:05.975Z,8.20
2022-09-27T20:56:36.370Z,8.20
2022-09-27T20:59:06.316Z,8.20
2022-09-27T21:01:34.818Z,8.30
2022-09-27T21:04:04.595Z,8.30
2022-09-27T21:06:34.233Z,8.30
2022-09-27T21:09:05.529Z,8.30
2022-09-27T21:11:33.483Z,8.30
2022-09-27T21:14:01.496Z,8.30
2022-09-27T21:16:34.225Z,8.30
2022-09-27T21:19:02.409Z,8.20
2022-09-27T21:21:30.617Z,8.20
2022-09-27T21:24:01.512Z,8.20
2022-09-27T21:26:31.301Z,8.10
2022-09-27T21:29:01.067Z,8.10
2022-09-27T21:31:31.936Z,8.10
2022-09-27T21:34:01.603Z,8.10
2022-09-27T21:36:31.265Z,8.10
2022-09-27T21:39:00.771Z,8.10
2022-09-27T21:41:29.360Z,8.10
2022-09-27T21:43:57.286Z,8.10
2022-09-27T21:46:26.543Z,8.10
2022-09-27T21:48:56.427Z,8.10
2022-09-27T21:51:26.156Z,8.00
2022-09-27T21:53:55.805Z,8.00
2022-09-27T21:56:27.312Z,8.00
2022-09-27T21:58:55.222Z,8.00
2022-09-27T22:01:24.803Z,8.00
2022-09-27T22:03:54.208Z,7.90
2022-09-27T22:06:23.853Z,7.90
2022-09-27T22:08:52.620Z,8.00
2022-09-27T22:11:22.582Z,7.90
2022-09-27T22:13:52.108Z,7.90
2022-09-27T22:16:21.490Z,7.90
2022-09-27T22:18:51.675Z,7.90
2022-09-27T22:21:23.918Z,7.90
2022-09-27T22:23:55.572Z,7.90
2022-09-27T22:26:25.584Z,7.90
2022-09-27T22:28:55.332Z,7.80
2022-09-27T22:31:24.146Z,7.80
2022-09-27T22:33:53.303Z,7.80
2022-09-27T22:36:22.034Z,7.80
2022-09-27T22:38:50.381Z,7.70
2022-09-27T22:41:18.546Z,7.70
2022-09-27T22:43:46.530Z,7.70
2022-09-27T22:46:15.838Z,7.70
2022-09-27T22:48:44.214Z,7.60
2022-09-27T22:51:13.481Z,7.60
2022-09-27T22:53:41.470Z,7.60
2022-09-27T22:56:14.081Z,7.60
2022-09-27T22:58:44.043Z,7.60
2022-09-27T23:01:14.866Z,7.60
2022-09-27T23:03:45.546Z,7.60
2022-09-27T23:06:14.064Z,7.60
2022-09-27T23:08:42.512Z,7.60
2022-09-27T23:11:12.103Z,7.60
2022-09-27T23:13:42.288Z,7.60
2022-09-27T23:16:12.297Z,7.60
2022-09-27T23:18:40.524Z,7.60
2022-09-27T23:21:11.183Z,7.60
2022-09-27T23:23:41.349Z,7.60
2022-09-27T23:26:10.748Z,7.60
2022-09-27T23:28:38.835Z,7.60
2022-09-27T23:31:08.765Z,7.60
2022-09-27T23:33:37.968Z,7.70
2022-09-27T23:36:06.675Z,7.70
2022-09-27T23:38:37.249Z,7.70
2022-09-27T23:41:07.480Z,7.70
2022-09-27T23:43:36.210Z,7.70
2022-09-27T23:46:04.282Z,7.70
2022-09-27T23:48:32.284Z,7.70
2022-09-27T23:51:00.179Z,7.70
2022-09-27T23:53:28.103Z,7.80
2022-09-27T23:56:05.808Z,7.80
2022-09-27T23:58:34.657Z,7.80
